sensor_id;sensor_type;location;lat;lon;timestamp;temperature;humidity
41628;DHT22;27321;50.816;6.054;2023-12-04T00:00:32;5.30;57.50
41628;DHT22;27321;50.816;6.054;2023-12-04T00:03:33;5.30;56.80
41628;DHT22;27321;50.816;6.054;2023-12-04T00:06:34;5.30;56.40
41628;DHT22;27321;50.816;6.054;2023-12-04T00:09:38;5.30;56.50
41628;DHT22;27321;50.816;6.054;2023-12-04T00:12:39;5.30;56.40
41628;DHT22;27321;50.816;6.054;2023-12-04T00:15:40;5.30;56.50
41628;DHT22;27321;50.816;6.054;2023-12-04T00:18:41;5.30;56.40
41628;DHT22;27321;50.816;6.054;2023-12-04T00:21:42;5.30;56.30
41628;DHT22;27321;50.816;6.054;2023-12-04T00:24:43;5.30;56.60
41628;DHT22;27321;50.816;6.054;2023-12-04T00:27:44;5.40;57.00
41628;DHT22;27321;50.816;6.054;2023-12-04T00:30:45;5.40;57.30
41628;DHT22;27321;50.816;6.054;2023-12-04T00:33:46;5.40;57.50
41628;DHT22;27321;50.816;6.054;2023-12-04T00:36:48;5.40;57.70
41628;DHT22;27321;50.816;6.054;2023-12-04T00:39:52;5.40;57.60
41628;DHT22;27321;50.816;6.054;2023-12-04T00:42:53;5.40;57.40
41628;DHT22;27321;50.816;6.054;2023-12-04T00:45:54;5.40;57.70
41628;DHT22;27321;50.816;6.054;2023-12-04T00:48:55;5.40;57.90
41628;DHT22;27321;50.816;6.054;2023-12-04T00:51:56;5.40;58.00
41628;DHT22;27321;50.816;6.054;2023-12-04T00:54:56;5.40;58.10
41628;DHT22;27321;50.816;6.054;2023-12-04T00:57:57;5.40;58.60
41628;DHT22;27321;50.816;6.054;2023-12-04T01:00:58;5.40;58.40
41628;DHT22;27321;50.816;6.054;2023-12-04T01:04:00;5.40;58.70
41628;DHT22;27321;50.816;6.054;2023-12-04T01:07:02;5.40;58.60
41628;DHT22;27321;50.816;6.054;2023-12-04T01:10:04;5.40;59.30
41628;DHT22;27321;50.816;6.054;2023-12-04T01:13:08;5.40;59.20
41628;DHT22;27321;50.816;6.054;2023-12-04T01:16:09;5.50;59.60
41628;DHT22;27321;50.816;6.054;2023-12-04T01:19:10;5.50;59.20
41628;DHT22;27321;50.816;6.054;2023-12-04T01:22:11;5.50;59.40
41628;DHT22;27321;50.816;6.054;2023-12-04T01:25:18;5.50;59.80
41628;DHT22;27321;50.816;6.054;2023-12-04T01:28:19;5.60;59.80
41628;DHT22;27321;50.816;6.054;2023-12-04T01:31:20;5.60;59.60
41628;DHT22;27321;50.816;6.054;2023-12-04T01:34:21;5.50;59.90
41628;DHT22;27321;50.816;6.054;2023-12-04T01:37:22;5.60;60.20
41628;DHT22;27321;50.816;6.054;2023-12-04T01:40:24;5.60;59.80
41628;DHT22;27321;50.816;6.054;2023-12-04T01:43:25;5.60;60.00
41628;DHT22;27321;50.816;6.054;2023-12-04T01:46:26;5.50;59.90
41628;DHT22;27321;50.816;6.054;2023-12-04T01:49:27;5.50;59.60
41628;DHT22;27321;50.816;6.054;2023-12-04T01:52:28;5.60;60.00
41628;DHT22;27321;50.816;6.054;2023-12-04T01:55:29;5.60;60.10
41628;DHT22;27321;50.816;6.054;2023-12-04T01:58:31;5.60;60.00
41628;DHT22;27321;50.816;6.054;2023-12-04T02:01:32;5.60;60.30
41628;DHT22;27321;50.816;6.054;2023-12-04T02:04:34;5.60;60.20
41628;DHT22;27321;50.816;6.054;2023-12-04T02:07:35;5.60;60.10
41628;DHT22;27321;50.816;6.054;2023-12-04T02:10:37;5.60;60.50
41628;DHT22;27321;50.816;6.054;2023-12-04T02:13:39;5.60;60.30
41628;DHT22;27321;50.816;6.054;2023-12-04T02:16:41;5.60;60.30
41628;DHT22;27321;50.816;6.054;2023-12-04T02:19:43;5.60;60.30
41628;DHT22;27321;50.816;6.054;2023-12-04T02:22:44;5.60;60.50
41628;DHT22;27321;50.816;6.054;2023-12-04T02:25:45;5.60;60.10
41628;DHT22;27321;50.816;6.054;2023-12-04T02:28:51;5.60;60.10
41628;DHT22;27321;50.816;6.054;2023-12-04T02:31:56;5.60;60.20
41628;DHT22;27321;50.816;6.054;2023-12-04T02:34:59;5.60;60.10
41628;DHT22;27321;50.816;6.054;2023-12-04T02:38:03;5.60;60.30
41628;DHT22;27321;50.816;6.054;2023-12-04T02:41:05;5.60;60.10
41628;DHT22;27321;50.816;6.054;2023-12-04T02:44:06;5.60;60.20
41628;DHT22;27321;50.816;6.054;2023-12-04T02:47:07;5.60;60.10
41628;DHT22;27321;50.816;6.054;2023-12-04T02:50:08;5.60;59.70
41628;DHT22;27321;50.816;6.054;2023-12-04T02:53:09;5.60;59.80
41628;DHT22;27321;50.816;6.054;2023-12-04T02:56:10;5.60;59.50
41628;DHT22;27321;50.816;6.054;2023-12-04T02:59:11;5.70;59.50
41628;DHT22;27321;50.816;6.054;2023-12-04T03:02:12;5.70;59.40
41628;DHT22;27321;50.816;6.054;2023-12-04T03:05:13;5.70;59.30
41628;DHT22;27321;50.816;6.054;2023-12-04T03:08:14;5.70;59.20
41628;DHT22;27321;50.816;6.054;2023-12-04T03:11:15;5.70;59.30
41628;DHT22;27321;50.816;6.054;2023-12-04T03:14:16;5.70;59.20
41628;DHT22;27321;50.816;6.054;2023-12-04T03:17:16;5.70;58.90
41628;DHT22;27321;50.816;6.054;2023-12-04T03:20:17;5.70;59.00
41628;DHT22;27321;50.816;6.054;2023-12-04T03:23:19;5.70;59.10
41628;DHT22;27321;50.816;6.054;2023-12-04T03:26:20;5.70;59.50
41628;DHT22;27321;50.816;6.054;2023-12-04T03:29:21;5.60;60.00
41628;DHT22;27321;50.816;6.054;2023-12-04T03:32:21;5.70;59.60
41628;DHT22;27321;50.816;6.054;2023-12-04T03:35:28;5.70;60.00
41628;DHT22;27321;50.816;6.054;2023-12-04T03:38:29;5.70;60.10
41628;DHT22;27321;50.816;6.054;2023-12-04T03:41:30;5.60;59.90
41628;DHT22;27321;50.816;6.054;2023-12-04T03:44:31;5.60;59.70
41628;DHT22;27321;50.816;6.054;2023-12-04T03:47:32;5.60;59.80
41628;DHT22;27321;50.816;6.054;2023-12-04T03:50:33;5.60;59.80
41628;DHT22;27321;50.816;6.054;2023-12-04T03:53:34;5.70;59.50
41628;DHT22;27321;50.816;6.054;2023-12-04T03:56:35;5.70;59.30
41628;DHT22;27321;50.816;6.054;2023-12-04T03:59:36;5.70;59.60
41628;DHT22;27321;50.816;6.054;2023-12-04T04:02:37;5.70;58.70
41628;DHT22;27321;50.816;6.054;2023-12-04T04:05:40;5.70;58.70
41628;DHT22;27321;50.816;6.054;2023-12-04T04:08:41;5.70;58.30
41628;DHT22;27321;50.816;6.054;2023-12-04T04:11:42;5.60;58.80
41628;DHT22;27321;50.816;6.054;2023-12-04T04:15:03;5.70;58.80
41628;DHT22;27321;50.816;6.054;2023-12-04T04:18:48;5.60;58.50
41628;DHT22;27321;50.816;6.054;2023-12-04T04:22:35;5.60;58.10
41628;DHT22;27321;50.816;6.054;2023-12-04T04:26:21;5.60;58.20
41628;DHT22;27321;50.816;6.054;2023-12-04T04:30:01;5.60;57.50
41628;DHT22;27321;50.816;6.054;2023-12-04T04:33:16;5.60;57.50
41628;DHT22;27321;50.816;6.054;2023-12-04T04:36:31;5.60;57.10
41628;DHT22;27321;50.816;6.054;2023-12-04T04:39:48;5.60;56.80
41628;DHT22;27321;50.816;6.054;2023-12-04T04:47:07;5.60;54.40
41628;DHT22;27321;50.816;6.054;2023-12-04T04:50:08;5.60;53.20
41628;DHT22;27321;50.816;6.054;2023-12-04T04:53:13;5.50;52.30
41628;DHT22;27321;50.816;6.054;2023-12-04T04:56:15;5.60;51.90
41628;DHT22;27321;50.816;6.054;2023-12-04T04:59:16;5.60;50.90
41628;DHT22;27321;50.816;6.054;2023-12-04T05:02:17;5.60;51.50
41628;DHT22;27321;50.816;6.054;2023-12-04T05:05:18;5.60;51.50
41628;DHT22;27321;50.816;6.054;2023-12-04T05:08:19;5.60;50.50
41628;DHT22;27321;50.816;6.054;2023-12-04T05:11:23;5.60;50.50
41628;DHT22;27321;50.816;6.054;2023-12-04T05:14:24;5.60;50.00
41628;DHT22;27321;50.816;6.054;2023-12-04T05:17:25;5.60;49.70
41628;DHT22;27321;50.816;6.054;2023-12-04T05:20:26;5.60;49.50
41628;DHT22;27321;50.816;6.054;2023-12-04T05:23:27;5.70;50.10
41628;DHT22;27321;50.816;6.054;2023-12-04T05:26:28;5.70;49.50
41628;DHT22;27321;50.816;6.054;2023-12-04T05:29:29;5.70;48.90
41628;DHT22;27321;50.816;6.054;2023-12-04T05:32:33;5.70;49.80
41628;DHT22;27321;50.816;6.054;2023-12-04T05:35:37;5.70;49.00
41628;DHT22;27321;50.816;6.054;2023-12-04T05:38:41;5.70;49.20
41628;DHT22;27321;50.816;6.054;2023-12-04T05:41:42;5.70;49.50
41628;DHT22;27321;50.816;6.054;2023-12-04T05:44:43;5.70;49.80
41628;DHT22;27321;50.816;6.054;2023-12-04T05:47:44;5.70;48.80
41628;DHT22;27321;50.816;6.054;2023-12-04T05:50:45;5.70;48.90
41628;DHT22;27321;50.816;6.054;2023-12-04T05:53:46;5.70;48.80
41628;DHT22;27321;50.816;6.054;2023-12-04T05:56:47;5.80;48.90
41628;DHT22;27321;50.816;6.054;2023-12-04T05:59:48;5.80;48.70
41628;DHT22;27321;50.816;6.054;2023-12-04T06:02:49;5.80;48.00
41628;DHT22;27321;50.816;6.054;2023-12-04T06:05:50;5.80;47.90
41628;DHT22;27321;50.816;6.054;2023-12-04T06:08:51;5.80;48.10
41628;DHT22;27321;50.816;6.054;2023-12-04T06:11:52;5.80;48.50
41628;DHT22;27321;50.816;6.054;2023-12-04T06:14:53;5.80;47.60
41628;DHT22;27321;50.816;6.054;2023-12-04T06:17:54;5.80;47.40
41628;DHT22;27321;50.816;6.054;2023-12-04T06:20:55;5.80;47.90
41628;DHT22;27321;50.816;6.054;2023-12-04T06:23:56;5.80;48.00
41628;DHT22;27321;50.816;6.054;2023-12-04T06:27:18;5.90;48.00
41628;DHT22;27321;50.816;6.054;2023-12-04T06:30:22;5.90;48.50
41628;DHT22;27321;50.816;6.054;2023-12-04T06:33:23;5.80;48.50
41628;DHT22;27321;50.816;6.054;2023-12-04T06:36:25;5.90;48.80
41628;DHT22;27321;50.816;6.054;2023-12-04T06:39:32;5.90;48.50
41628;DHT22;27321;50.816;6.054;2023-12-04T06:42:35;5.90;47.90
41628;DHT22;27321;50.816;6.054;2023-12-04T06:45:36;5.90;47.50
41628;DHT22;27321;50.816;6.054;2023-12-04T06:48:37;5.90;47.90
41628;DHT22;27321;50.816;6.054;2023-12-04T06:51:38;6.00;47.80
41628;DHT22;27321;50.816;6.054;2023-12-04T06:54:39;6.00;47.50
41628;DHT22;27321;50.816;6.054;2023-12-04T06:57:40;6.00;47.70
41628;DHT22;27321;50.816;6.054;2023-12-04T07:00:41;6.00;47.50
41628;DHT22;27321;50.816;6.054;2023-12-04T07:03:42;6.00;48.20
41628;DHT22;27321;50.816;6.054;2023-12-04T07:06:43;6.00;49.30
41628;DHT22;27321;50.816;6.054;2023-12-04T07:09:44;6.00;49.20
41628;DHT22;27321;50.816;6.054;2023-12-04T07:12:45;6.00;49.00
41628;DHT22;27321;50.816;6.054;2023-12-04T07:15:46;6.00;48.80
41628;DHT22;27321;50.816;6.054;2023-12-04T07:18:47;6.00;48.70
41628;DHT22;27321;50.816;6.054;2023-12-04T07:21:48;6.00;49.00
41628;DHT22;27321;50.816;6.054;2023-12-04T07:24:50;6.10;48.40
41628;DHT22;27321;50.816;6.054;2023-12-04T07:27:51;6.00;47.70
41628;DHT22;27321;50.816;6.054;2023-12-04T07:30:54;6.10;46.90
41628;DHT22;27321;50.816;6.054;2023-12-04T07:33:56;6.10;46.80
41628;DHT22;27321;50.816;6.054;2023-12-04T07:36:57;6.10;46.70
41628;DHT22;27321;50.816;6.054;2023-12-04T07:39:59;6.10;47.20
41628;DHT22;27321;50.816;6.054;2023-12-04T07:43:00;6.10;46.90
41628;DHT22;27321;50.816;6.054;2023-12-04T07:46:03;6.10;47.00
41628;DHT22;27321;50.816;6.054;2023-12-04T07:49:04;6.20;46.90
41628;DHT22;27321;50.816;6.054;2023-12-04T07:52:05;6.10;46.80
41628;DHT22;27321;50.816;6.054;2023-12-04T07:55:07;6.10;47.00
41628;DHT22;27321;50.816;6.054;2023-12-04T07:58:08;6.20;47.40
41628;DHT22;27321;50.816;6.054;2023-12-04T08:01:09;6.20;48.10
41628;DHT22;27321;50.816;6.054;2023-12-04T08:04:10;6.30;48.40
41628;DHT22;27321;50.816;6.054;2023-12-04T08:07:11;6.20;48.30
41628;DHT22;27321;50.816;6.054;2023-12-04T08:10:13;6.30;48.30
41628;DHT22;27321;50.816;6.054;2023-12-04T08:13:14;6.30;48.80
41628;DHT22;27321;50.816;6.054;2023-12-04T08:16:16;6.30;49.20
41628;DHT22;27321;50.816;6.054;2023-12-04T08:19:17;6.30;49.40
41628;DHT22;27321;50.816;6.054;2023-12-04T08:22:19;6.30;49.40
41628;DHT22;27321;50.816;6.054;2023-12-04T08:25:20;6.30;50.20
41628;DHT22;27321;50.816;6.054;2023-12-04T08:28:21;6.40;50.10
41628;DHT22;27321;50.816;6.054;2023-12-04T08:31:22;6.40;50.40
41628;DHT22;27321;50.816;6.054;2023-12-04T08:34:23;6.40;50.20
41628;DHT22;27321;50.816;6.054;2023-12-04T08:37:23;6.40;50.50
41628;DHT22;27321;50.816;6.054;2023-12-04T08:40:24;6.40;50.70
41628;DHT22;27321;50.816;6.054;2023-12-04T08:43:25;6.40;51.00
41628;DHT22;27321;50.816;6.054;2023-12-04T08:46:26;6.40;51.20
41628;DHT22;27321;50.816;6.054;2023-12-04T08:49:27;6.50;51.40
41628;DHT22;27321;50.816;6.054;2023-12-04T08:52:28;6.50;50.80
41628;DHT22;27321;50.816;6.054;2023-12-04T08:55:29;6.50;51.50
41628;DHT22;27321;50.816;6.054;2023-12-04T08:58:30;6.50;51.80
41628;DHT22;27321;50.816;6.054;2023-12-04T09:01:31;6.50;51.80
41628;DHT22;27321;50.816;6.054;2023-12-04T09:04:32;6.50;51.70
41628;DHT22;27321;50.816;6.054;2023-12-04T09:07:35;6.50;51.90
41628;DHT22;27321;50.816;6.054;2023-12-04T09:10:37;6.50;51.60
41628;DHT22;27321;50.816;6.054;2023-12-04T09:13:38;6.60;52.00
41628;DHT22;27321;50.816;6.054;2023-12-04T09:16:39;6.50;52.30
41628;DHT22;27321;50.816;6.054;2023-12-04T09:19:40;6.50;52.60
41628;DHT22;27321;50.816;6.054;2023-12-04T09:22:40;6.50;52.60
41628;DHT22;27321;50.816;6.054;2023-12-04T09:25:42;6.60;52.90
41628;DHT22;27321;50.816;6.054;2023-12-04T09:28:42;6.60;53.30
41628;DHT22;27321;50.816;6.054;2023-12-04T09:31:43;6.60;53.70
41628;DHT22;27321;50.816;6.054;2023-12-04T09:34:44;6.60;53.80
41628;DHT22;27321;50.816;6.054;2023-12-04T09:37:45;6.60;54.00
41628;DHT22;27321;50.816;6.054;2023-12-04T09:40:46;6.70;53.90
41628;DHT22;27321;50.816;6.054;2023-12-04T09:43:47;6.70;54.20
41628;DHT22;27321;50.816;6.054;2023-12-04T09:46:50;6.70;54.60
41628;DHT22;27321;50.816;6.054;2023-12-04T09:49:52;6.70;54.50
41628;DHT22;27321;50.816;6.054;2023-12-04T09:52:56;6.70;55.00
41628;DHT22;27321;50.816;6.054;2023-12-04T09:56:00;6.80;55.00
41628;DHT22;27321;50.816;6.054;2023-12-04T09:59:05;6.80;55.20
41628;DHT22;27321;50.816;6.054;2023-12-04T10:02:07;6.80;55.60
41628;DHT22;27321;50.816;6.054;2023-12-04T10:05:08;6.80;55.70
41628;DHT22;27321;50.816;6.054;2023-12-04T10:08:10;6.90;57.20
41628;DHT22;27321;50.816;6.054;2023-12-04T10:11:12;6.90;57.50
41628;DHT22;27321;50.816;6.054;2023-12-04T10:14:18;6.90;57.60
41628;DHT22;27321;50.816;6.054;2023-12-04T10:17:20;6.90;57.60
41628;DHT22;27321;50.816;6.054;2023-12-04T10:20:21;6.90;57.60
41628;DHT22;27321;50.816;6.054;2023-12-04T10:23:38;6.90;58.10
41628;DHT22;27321;50.816;6.054;2023-12-04T10:26:49;6.90;58.00
41628;DHT22;27321;50.816;6.054;2023-12-04T10:29:53;6.90;58.60
41628;DHT22;27321;50.816;6.054;2023-12-04T10:32:58;7.00;59.00
41628;DHT22;27321;50.816;6.054;2023-12-04T10:36:02;7.00;59.10
41628;DHT22;27321;50.816;6.054;2023-12-04T10:39:05;7.00;59.30
41628;DHT22;27321;50.816;6.054;2023-12-04T10:42:06;7.00;59.30
41628;DHT22;27321;50.816;6.054;2023-12-04T10:45:07;7.00;59.40
41628;DHT22;27321;50.816;6.054;2023-12-04T10:48:10;7.00;59.80
41628;DHT22;27321;50.816;6.054;2023-12-04T10:51:12;6.90;60.40
41628;DHT22;27321;50.816;6.054;2023-12-04T10:54:13;6.80;60.20
41628;DHT22;27321;50.816;6.054;2023-12-04T10:57:27;6.80;61.00
41628;DHT22;27321;50.816;6.054;2023-12-04T11:00:36;6.80;61.30
41628;DHT22;27321;50.816;6.054;2023-12-04T11:03:48;6.80;61.30
41628;DHT22;27321;50.816;6.054;2023-12-04T11:06:52;6.80;61.50
41628;DHT22;27321;50.816;6.054;2023-12-04T11:09:55;6.80;61.90
41628;DHT22;27321;50.816;6.054;2023-12-04T11:13:08;6.80;62.10
41628;DHT22;27321;50.816;6.054;2023-12-04T11:16:38;6.90;62.00
41628;DHT22;27321;50.816;6.054;2023-12-04T11:20:16;7.00;62.20
41628;DHT22;27321;50.816;6.054;2023-12-04T11:23:18;7.00;62.00
41628;DHT22;27321;50.816;6.054;2023-12-04T11:26:20;7.00;62.20
41628;DHT22;27321;50.816;6.054;2023-12-04T11:29:22;7.00;62.40
41628;DHT22;27321;50.816;6.054;2023-12-04T11:32:26;7.00;62.30
41628;DHT22;27321;50.816;6.054;2023-12-04T11:35:28;7.00;62.50
41628;DHT22;27321;50.816;6.054;2023-12-04T11:38:30;7.00;62.40
41628;DHT22;27321;50.816;6.054;2023-12-04T11:41:31;7.00;62.70
41628;DHT22;27321;50.816;6.054;2023-12-04T11:44:33;7.10;63.60
41628;DHT22;27321;50.816;6.054;2023-12-04T11:47:55;7.10;63.40
41628;DHT22;27321;50.816;6.054;2023-12-04T11:50:57;7.20;63.10
41628;DHT22;27321;50.816;6.054;2023-12-04T11:53:59;7.20;63.40
41628;DHT22;27321;50.816;6.054;2023-12-04T12:03:21;7.40;63.30
41628;DHT22;27321;50.816;6.054;2023-12-04T12:06:23;7.40;63.30
41628;DHT22;27321;50.816;6.054;2023-12-04T12:09:25;7.50;63.40
41628;DHT22;27321;50.816;6.054;2023-12-04T12:12:27;7.50;63.30
41628;DHT22;27321;50.816;6.054;2023-12-04T12:15:28;7.50;63.00
41628;DHT22;27321;50.816;6.054;2023-12-04T12:18:30;7.50;63.30
41628;DHT22;27321;50.816;6.054;2023-12-04T12:21:31;7.60;63.10
41628;DHT22;27321;50.816;6.054;2023-12-04T12:24:32;7.60;63.50
41628;DHT22;27321;50.816;6.054;2023-12-04T12:27:35;7.60;63.70
41628;DHT22;27321;50.816;6.054;2023-12-04T12:30:36;7.60;63.30
41628;DHT22;27321;50.816;6.054;2023-12-04T12:33:37;7.60;63.50
41628;DHT22;27321;50.816;6.054;2023-12-04T12:36:38;7.60;63.30
41628;DHT22;27321;50.816;6.054;2023-12-04T12:39:39;7.60;63.60
41628;DHT22;27321;50.816;6.054;2023-12-04T12:42:41;7.60;64.10
41628;DHT22;27321;50.816;6.054;2023-12-04T12:45:46;7.60;64.10
41628;DHT22;27321;50.816;6.054;2023-12-04T12:48:51;7.50;64.20
41628;DHT22;27321;50.816;6.054;2023-12-04T12:51:54;7.50;64.00
41628;DHT22;27321;50.816;6.054;2023-12-04T12:54:56;7.60;64.20
41628;DHT22;27321;50.816;6.054;2023-12-04T12:57:57;7.50;64.40
41628;DHT22;27321;50.816;6.054;2023-12-04T13:00:59;7.50;64.40
41628;DHT22;27321;50.816;6.054;2023-12-04T13:04:02;7.60;64.50
41628;DHT22;27321;50.816;6.054;2023-12-04T13:07:05;7.50;64.00
41628;DHT22;27321;50.816;6.054;2023-12-04T13:10:07;7.50;64.30
41628;DHT22;27321;50.816;6.054;2023-12-04T13:13:15;7.50;64.70
41628;DHT22;27321;50.816;6.054;2023-12-04T13:16:19;7.60;64.50
41628;DHT22;27321;50.816;6.054;2023-12-04T13:19:22;7.60;64.80
41628;DHT22;27321;50.816;6.054;2023-12-04T13:22:23;7.60;64.00
41628;DHT22;27321;50.816;6.054;2023-12-04T13:25:25;7.60;64.10
41628;DHT22;27321;50.816;6.054;2023-12-04T13:28:26;7.60;64.40
41628;DHT22;27321;50.816;6.054;2023-12-04T13:31:26;7.60;64.40
41628;DHT22;27321;50.816;6.054;2023-12-04T13:34:28;7.60;64.40
41628;DHT22;27321;50.816;6.054;2023-12-04T13:37:29;7.60;64.30
41628;DHT22;27321;50.816;6.054;2023-12-04T13:40:30;7.60;64.20
41628;DHT22;27321;50.816;6.054;2023-12-04T13:43:32;7.60;64.40
41628;DHT22;27321;50.816;6.054;2023-12-04T13:46:51;7.60;64.50
41628;DHT22;27321;50.816;6.054;2023-12-04T13:49:53;7.60;64.50
41628;DHT22;27321;50.816;6.054;2023-12-04T13:52:55;7.50;64.60
41628;DHT22;27321;50.816;6.054;2023-12-04T13:55:57;7.60;64.70
41628;DHT22;27321;50.816;6.054;2023-12-04T13:59:02;7.60;64.70
41628;DHT22;27321;50.816;6.054;2023-12-04T14:02:05;7.60;64.80
41628;DHT22;27321;50.816;6.054;2023-12-04T14:05:11;7.60;64.60
41628;DHT22;27321;50.816;6.054;2023-12-04T14:08:16;7.60;65.30
41628;DHT22;27321;50.816;6.054;2023-12-04T14:11:17;7.50;65.40
41628;DHT22;27321;50.816;6.054;2023-12-04T14:14:18;7.50;65.70
41628;DHT22;27321;50.816;6.054;2023-12-04T14:17:18;7.50;66.00
41628;DHT22;27321;50.816;6.054;2023-12-04T14:20:19;7.50;66.50
41628;DHT22;27321;50.816;6.054;2023-12-04T14:23:23;7.50;66.80
41628;DHT22;27321;50.816;6.054;2023-12-04T14:26:24;7.50;67.40
41628;DHT22;27321;50.816;6.054;2023-12-04T14:29:25;7.40;67.50
41628;DHT22;27321;50.816;6.054;2023-12-04T14:32:26;7.40;67.50
41628;DHT22;27321;50.816;6.054;2023-12-04T14:35:28;7.40;67.80
41628;DHT22;27321;50.816;6.054;2023-12-04T14:38:29;7.40;67.70
41628;DHT22;27321;50.816;6.054;2023-12-04T14:41:30;7.40;68.10
41628;DHT22;27321;50.816;6.054;2023-12-04T14:44:31;7.30;68.40
41628;DHT22;27321;50.816;6.054;2023-12-04T14:47:33;7.30;68.20
41628;DHT22;27321;50.816;6.054;2023-12-04T14:50:34;7.30;68.40
41628;DHT22;27321;50.816;6.054;2023-12-04T14:53:40;7.40;68.80
41628;DHT22;27321;50.816;6.054;2023-12-04T14:56:45;7.40;69.10
41628;DHT22;27321;50.816;6.054;2023-12-04T15:00:10;7.40;68.90
41628;DHT22;27321;50.816;6.054;2023-12-04T15:03:34;7.40;68.80
41628;DHT22;27321;50.816;6.054;2023-12-04T15:06:53;7.40;69.50
41628;DHT22;27321;50.816;6.054;2023-12-04T15:10:23;7.40;69.30
41628;DHT22;27321;50.816;6.054;2023-12-04T15:13:50;7.40;69.60
41628;DHT22;27321;50.816;6.054;2023-12-04T15:16:56;7.40;69.80
41628;DHT22;27321;50.816;6.054;2023-12-04T15:20:14;7.30;69.90
41628;DHT22;27321;50.816;6.054;2023-12-04T15:23:48;7.30;70.00
41628;DHT22;27321;50.816;6.054;2023-12-04T15:26:52;7.30;70.40
41628;DHT22;27321;50.816;6.054;2023-12-04T15:29:53;7.40;70.30
41628;DHT22;27321;50.816;6.054;2023-12-04T15:32:57;7.40;70.40
41628;DHT22;27321;50.816;6.054;2023-12-04T15:35:58;7.40;70.50
41628;DHT22;27321;50.816;6.054;2023-12-04T15:39:00;7.40;70.60
41628;DHT22;27321;50.816;6.054;2023-12-04T15:42:04;7.40;70.80
41628;DHT22;27321;50.816;6.054;2023-12-04T15:45:07;7.40;70.60
41628;DHT22;27321;50.816;6.054;2023-12-04T15:48:08;7.40;70.50
41628;DHT22;27321;50.816;6.054;2023-12-04T15:51:10;7.40;70.90
41628;DHT22;27321;50.816;6.054;2023-12-04T15:54:12;7.40;71.40
41628;DHT22;27321;50.816;6.054;2023-12-04T15:57:12;7.40;71.70
41628;DHT22;27321;50.816;6.054;2023-12-04T16:00:17;7.40;71.70
41628;DHT22;27321;50.816;6.054;2023-12-04T16:03:18;7.40;71.80
41628;DHT22;27321;50.816;6.054;2023-12-04T16:06:19;7.50;71.80
41628;DHT22;27321;50.816;6.054;2023-12-04T16:09:20;7.40;72.40
41628;DHT22;27321;50.816;6.054;2023-12-04T16:12:20;7.40;72.30
41628;DHT22;27321;50.816;6.054;2023-12-04T16:15:22;7.40;72.40
41628;DHT22;27321;50.816;6.054;2023-12-04T16:18:23;7.40;72.60
41628;DHT22;27321;50.816;6.054;2023-12-04T16:21:24;7.40;72.40
41628;DHT22;27321;50.816;6.054;2023-12-04T16:24:26;7.40;72.50
41628;DHT22;27321;50.816;6.054;2023-12-04T16:27:27;7.40;72.70
41628;DHT22;27321;50.816;6.054;2023-12-04T16:30:53;7.40;72.40
41628;DHT22;27321;50.816;6.054;2023-12-04T16:33:56;7.40;72.60
41628;DHT22;27321;50.816;6.054;2023-12-04T16:36:57;7.40;73.00
41628;DHT22;27321;50.816;6.054;2023-12-04T16:39:58;7.40;73.10
41628;DHT22;27321;50.816;6.054;2023-12-04T16:42:59;7.40;73.10
41628;DHT22;27321;50.816;6.054;2023-12-04T16:46:11;7.40;73.10
41628;DHT22;27321;50.816;6.054;2023-12-04T16:49:13;7.40;73.20
41628;DHT22;27321;50.816;6.054;2023-12-04T16:52:15;7.40;73.30
41628;DHT22;27321;50.816;6.054;2023-12-04T16:55:16;7.30;73.20
41628;DHT22;27321;50.816;6.054;2023-12-04T16:58:17;7.30;73.40
41628;DHT22;27321;50.816;6.054;2023-12-04T17:01:18;7.40;73.50
41628;DHT22;27321;50.816;6.054;2023-12-04T17:04:19;7.40;73.30
41628;DHT22;27321;50.816;6.054;2023-12-04T17:07:23;7.40;73.20
41628;DHT22;27321;50.816;6.054;2023-12-04T17:10:24;7.40;73.30
41628;DHT22;27321;50.816;6.054;2023-12-04T17:13:25;7.40;73.40
41628;DHT22;27321;50.816;6.054;2023-12-04T17:16:26;7.40;73.50
41628;DHT22;27321;50.816;6.054;2023-12-04T17:19:35;7.40;73.50
41628;DHT22;27321;50.816;6.054;2023-12-04T17:22:36;7.40;73.70
41628;DHT22;27321;50.816;6.054;2023-12-04T17:25:37;7.40;73.70
41628;DHT22;27321;50.816;6.054;2023-12-04T17:28:38;7.40;73.70
41628;DHT22;27321;50.816;6.054;2023-12-04T17:31:39;7.40;73.70
41628;DHT22;27321;50.816;6.054;2023-12-04T17:34:43;7.50;73.90
41628;DHT22;27321;50.816;6.054;2023-12-04T17:37:44;7.50;73.70
41628;DHT22;27321;50.816;6.054;2023-12-04T17:40:45;7.50;73.80
41628;DHT22;27321;50.816;6.054;2023-12-04T17:43:46;7.50;74.00
41628;DHT22;27321;50.816;6.054;2023-12-04T17:46:47;7.60;73.80
41628;DHT22;27321;50.816;6.054;2023-12-04T17:49:48;7.50;73.90
41628;DHT22;27321;50.816;6.054;2023-12-04T17:52:49;7.50;73.90
41628;DHT22;27321;50.816;6.054;2023-12-04T17:55:50;7.60;73.90
41628;DHT22;27321;50.816;6.054;2023-12-04T17:58:51;7.60;73.90
41628;DHT22;27321;50.816;6.054;2023-12-04T18:01:52;7.60;74.00
41628;DHT22;27321;50.816;6.054;2023-12-04T18:04:53;7.60;74.00
41628;DHT22;27321;50.816;6.054;2023-12-04T18:07:56;7.60;74.20
41628;DHT22;27321;50.816;6.054;2023-12-04T18:10:58;7.60;74.10
41628;DHT22;27321;50.816;6.054;2023-12-04T18:13:59;7.60;74.20
41628;DHT22;27321;50.816;6.054;2023-12-04T18:16:59;7.60;74.20
41628;DHT22;27321;50.816;6.054;2023-12-04T18:20:15;7.60;74.10
41628;DHT22;27321;50.816;6.054;2023-12-04T18:23:18;7.60;74.20
41628;DHT22;27321;50.816;6.054;2023-12-04T18:26:22;7.60;74.20
41628;DHT22;27321;50.816;6.054;2023-12-04T18:29:23;7.60;74.30
41628;DHT22;27321;50.816;6.054;2023-12-04T18:32:25;7.70;74.40
41628;DHT22;27321;50.816;6.054;2023-12-04T18:35:26;7.70;74.30
41628;DHT22;27321;50.816;6.054;2023-12-04T18:38:49;7.70;74.40
41628;DHT22;27321;50.816;6.054;2023-12-04T18:41:51;7.70;74.30
41628;DHT22;27321;50.816;6.054;2023-12-04T18:44:53;7.70;74.30
41628;DHT22;27321;50.816;6.054;2023-12-04T18:48:05;7.70;74.00
41628;DHT22;27321;50.816;6.054;2023-12-04T18:51:08;7.70;74.20
41628;DHT22;27321;50.816;6.054;2023-12-04T18:54:09;7.70;74.20
41628;DHT22;27321;50.816;6.054;2023-12-04T18:57:11;7.70;74.10
41628;DHT22;27321;50.816;6.054;2023-12-04T19:00:13;7.70;74.20
41628;DHT22;27321;50.816;6.054;2023-12-04T19:03:14;7.70;74.30
41628;DHT22;27321;50.816;6.054;2023-12-04T19:06:15;7.70;74.20
41628;DHT22;27321;50.816;6.054;2023-12-04T19:09:16;7.80;74.20
41628;DHT22;27321;50.816;6.054;2023-12-04T19:12:17;7.80;74.20
41628;DHT22;27321;50.816;6.054;2023-12-04T19:15:18;7.80;74.20
41628;DHT22;27321;50.816;6.054;2023-12-04T19:18:19;7.80;74.20
41628;DHT22;27321;50.816;6.054;2023-12-04T19:21:21;7.80;74.00
41628;DHT22;27321;50.816;6.054;2023-12-04T19:24:22;7.80;74.10
41628;DHT22;27321;50.816;6.054;2023-12-04T19:27:23;7.80;74.00
41628;DHT22;27321;50.816;6.054;2023-12-04T19:30:24;7.90;74.00
41628;DHT22;27321;50.816;6.054;2023-12-04T19:33:25;7.90;73.80
41628;DHT22;27321;50.816;6.054;2023-12-04T19:36:26;7.90;73.80
41628;DHT22;27321;50.816;6.054;2023-12-04T19:39:27;7.90;73.60
41628;DHT22;27321;50.816;6.054;2023-12-04T19:42:29;7.90;73.50
41628;DHT22;27321;50.816;6.054;2023-12-04T19:45:30;7.90;73.60